createdAt,value
2022-10-25T00:00:11.705Z,0.60
2022-10-25T00:01:11.763Z,0.90
2022-10-25T00:02:11.822Z,0.70
2022-10-25T00:03:11.665Z,0.70
2022-10-25T00:04:11.728Z,0.50
2022-10-25T00:05:11.643Z,0.60
2022-10-25T00:06:11.615Z,0.70
2022-10-25T00:07:11.604Z,0.60
2022-10-25T00:08:11.591Z,0.70
2022-10-25T00:09:11.583Z,0.60
2022-10-25T00:10:11.569Z,0.60
2022-10-25T00:11:11.553Z,0.70
2022-10-25T00:12:11.669Z,0.70
2022-10-25T00:13:11.540Z,0.60
2022-10-25T00:14:11.512Z,1.00
2022-10-25T00:15:11.509Z,0.60
2022-10-25T00:16:11.510Z,0.80
2022-10-25T00:17:11.478Z,0.70
2022-10-25T00:18:11.482Z,0.80
2022-10-25T00:19:11.455Z,0.90
2022-10-25T00:20:11.445Z,0.80
2022-10-25T00:21:11.428Z,0.70
2022-10-25T00:22:11.411Z,0.90
2022-10-25T00:23:11.397Z,0.80
2022-10-25T00:24:11.384Z,0.90
2022-10-25T00:25:11.385Z,1.10
2022-10-25T00:26:11.358Z,1.10
2022-10-25T00:27:11.360Z,0.90
2022-10-25T00:28:11.346Z,1.00
2022-10-25T00:29:11.403Z,0.90
2022-10-25T00:30:11.306Z,0.90
2022-10-25T00:31:11.298Z,1.30
2022-10-25T00:32:11.289Z,4.70
2022-10-25T00:33:11.274Z,9.50
2022-10-25T00:34:11.260Z,13.20
2022-10-25T00:35:11.255Z,13.10
2022-10-25T00:36:11.231Z,15.30
2022-10-25T00:37:11.229Z,15.20
2022-10-25T00:38:11.199Z,13.90
2022-10-25T00:39:11.196Z,14.10
2022-10-25T00:40:11.188Z,13.80
2022-10-25T00:41:11.168Z,13.20
2022-10-25T00:42:11.147Z,13.10
2022-10-25T00:43:11.138Z,12.60
2022-10-25T00:44:11.125Z,12.40
2022-10-25T00:45:11.131Z,13.30
2022-10-25T00:46:11.102Z,12.50
2022-10-25T00:47:19.370Z,12.70
2022-10-25T00:48:11.134Z,10.60
2022-10-25T00:49:11.134Z,11.00
2022-10-25T00:50:11.081Z,9.20
2022-10-25T00:51:11.038Z,8.70
2022-10-25T00:52:11.049Z,9.10
2022-10-25T00:53:11.088Z,8.60
2022-10-25T00:54:11.039Z,8.80
2022-10-25T00:55:10.995Z,8.00
2022-10-25T00:56:11.026Z,3.30
2022-10-25T00:57:10.952Z,3.30
2022-10-25T00:58:11.003Z,1.80
2022-10-25T00:59:10.926Z,2.00
2022-10-25T01:00:10.941Z,1.50
2022-10-25T01:01:10.976Z,1.70
2022-10-25T01:02:10.987Z,1.70
2022-10-25T01:03:10.882Z,1.70
2022-10-25T01:04:10.873Z,2.30
2022-10-25T01:05:10.870Z,2.60
2022-10-25T01:06:10.918Z,2.80
2022-10-25T01:07:10.824Z,2.40
2022-10-25T01:08:10.811Z,2.80
2022-10-25T01:09:10.805Z,2.00
2022-10-25T01:10:10.804Z,2.40
2022-10-25T01:11:10.827Z,2.70
2022-10-25T01:12:10.758Z,3.00
2022-10-25T01:13:10.777Z,3.10
2022-10-25T01:14:10.736Z,3.30
2022-10-25T01:15:10.725Z,3.90
2022-10-25T01:16:10.715Z,4.00
2022-10-25T01:17:10.734Z,4.50
2022-10-25T01:18:10.680Z,4.10
2022-10-25T01:19:10.667Z,3.80
2022-10-25T01:20:10.675Z,3.40
2022-10-25T01:21:10.647Z,2.70
2022-10-25T01:22:10.680Z,2.50
2022-10-25T01:23:10.649Z,2.30
2022-10-25T01:24:10.634Z,2.40
2022-10-25T01:25:10.605Z,2.60
2022-10-25T01:26:10.575Z,2.60
2022-10-25T01:27:10.630Z,2.50
2022-10-25T01:28:10.580Z,2.90
2022-10-25T01:29:10.545Z,2.50
2022-10-25T01:30:10.522Z,2.40
2022-10-25T01:31:10.529Z,2.40
2022-10-25T01:32:10.495Z,2.70
2022-10-25T01:33:10.576Z,2.00
2022-10-25T01:34:10.497Z,2.40
2022-10-25T01:35:10.468Z,2.30
2022-10-25T01:36:10.510Z,1.80
2022-10-25T01:37:10.486Z,1.90
2022-10-25T01:38:10.417Z,1.60
2022-10-25T01:39:10.423Z,1.40
2022-10-25T01:40:10.392Z,1.70
2022-10-25T01:41:10.411Z,1.00
2022-10-25T01:42:10.426Z,1.30
2022-10-25T01:43:10.400Z,1.00
2022-10-25T01:44:10.384Z,1.50
2022-10-25T01:45:10.337Z,0.90
2022-10-25T01:46:10.339Z,1.10
2022-10-25T01:47:10.305Z,0.80
2022-10-25T01:48:10.287Z,0.90
2022-10-25T01:49:10.316Z,0.90
2022-10-25T01:50:10.271Z,0.90
2022-10-25T01:51:10.250Z,1.00
2022-10-25T01:52:10.234Z,1.00
2022-10-25T01:53:10.278Z,0.90
2022-10-25T01:54:10.205Z,0.70
2022-10-25T01:55:10.209Z,0.80
2022-10-25T01:56:10.182Z,0.70
2022-10-25T01:57:10.215Z,0.70
2022-10-25T01:58:10.151Z,0.70
2022-10-25T01:59:10.179Z,0.60
2022-10-25T02:00:10.145Z,0.60
2022-10-25T02:01:10.328Z,0.50
2022-10-25T02:02:10.094Z,0.60
2022-10-25T02:03:10.129Z,1.00
2022-10-25T02:04:10.105Z,0.60
2022-10-25T02:05:10.081Z,0.70
2022-10-25T02:06:10.050Z,0.80
2022-10-25T02:07:10.086Z,0.50
2022-10-25T02:08:10.022Z,0.60
2022-10-25T02:09:10.084Z,0.60
2022-10-25T02:10:09.999Z,0.70
2022-10-25T02:11:10.021Z,0.60
2022-10-25T02:12:09.997Z,0.60
2022-10-25T02:13:09.950Z,0.50
2022-10-25T02:14:09.975Z,0.50
2022-10-25T02:15:09.931Z,0.60
2022-10-25T02:16:09.927Z,0.70
2022-10-25T02:17:09.906Z,0.50
2022-10-25T02:18:09.893Z,0.70
2022-10-25T02:19:09.911Z,0.70
2022-10-25T02:20:09.886Z,0.70
2022-10-25T02:21:09.856Z,0.50
2022-10-25T02:22:09.840Z,0.50
2022-10-25T02:23:09.856Z,0.60
2022-10-25T02:24:09.814Z,0.60
2022-10-25T02:25:09.809Z,0.60
2022-10-25T02:26:09.781Z,0.90
2022-10-25T02:27:09.776Z,0.90
2022-10-25T02:28:09.752Z,0.90
2022-10-25T02:29:09.761Z,0.90
2022-10-25T02:30:09.727Z,0.90
2022-10-25T02:31:09.724Z,0.70
2022-10-25T02:32:09.737Z,0.60
2022-10-25T02:33:09.708Z,0.50
2022-10-25T02:34:09.715Z,0.50
2022-10-25T02:35:09.709Z,0.40
2022-10-25T02:36:09.674Z,0.50
2022-10-25T02:37:09.659Z,0.70
2022-10-25T02:38:09.615Z,0.50
2022-10-25T02:39:09.662Z,0.50
2022-10-25T02:40:09.602Z,0.40
2022-10-25T02:41:09.586Z,0.50
2022-10-25T02:42:09.599Z,0.50
2022-10-25T02:43:09.548Z,0.50
2022-10-25T02:44:09.546Z,0.40
2022-10-25T02:45:09.524Z,0.30
2022-10-25T02:46:09.542Z,0.50
2022-10-25T02:47:09.507Z,0.40
2022-10-25T02:48:09.494Z,0.40
2022-10-25T02:49:09.518Z,0.50
2022-10-25T02:50:09.469Z,0.40
2022-10-25T02:51:09.443Z,0.40
2022-10-25T02:52:09.435Z,0.40
2022-10-25T02:53:09.426Z,0.50
2022-10-25T02:54:09.437Z,0.40
2022-10-25T02:55:09.402Z,0.40
2022-10-25T02:56:09.389Z,0.50
2022-10-25T02:57:09.371Z,0.50
2022-10-25T02:58:09.378Z,0.50
2022-10-25T02:59:09.384Z,0.40
2022-10-25T03:00:09.406Z,0.40
2022-10-25T03:01:09.417Z,0.30
2022-10-25T03:02:09.308Z,0.40
2022-10-25T03:03:09.303Z,0.50
2022-10-25T03:04:09.312Z,0.40
2022-10-25T03:05:09.312Z,0.30
2022-10-25T03:06:09.352Z,0.30
2022-10-25T03:07:09.263Z,0.60
2022-10-25T03:08:09.256Z,0.50
2022-10-25T03:09:09.245Z,0.40
2022-10-25T03:10:09.208Z,0.50
2022-10-25T03:11:09.202Z,0.50
2022-10-25T03:12:09.193Z,0.50
2022-10-25T03:13:09.195Z,0.70
2022-10-25T03:14:09.207Z,0.40
2022-10-25T03:15:09.165Z,0.40
2022-10-25T03:16:09.151Z,0.60
2022-10-25T03:17:09.125Z,0.50
2022-10-25T03:18:09.117Z,0.50
2022-10-25T03:19:09.097Z,0.60
2022-10-25T03:20:09.097Z,0.60
2022-10-25T03:21:09.060Z,0.80
2022-10-25T03:22:09.058Z,0.50
2022-10-25T03:23:09.056Z,0.70
2022-10-25T03:24:09.077Z,0.80
2022-10-25T03:26:08.998Z,0.60
2022-10-25T03:27:08.993Z,0.60
2022-10-25T03:28:09.025Z,0.70
2022-10-25T03:29:08.960Z,0.90
2022-10-25T03:30:08.964Z,0.70
2022-10-25T03:31:08.999Z,0.50
2022-10-25T03:32:08.958Z,0.70
2022-10-25T03:33:08.904Z,0.50
2022-10-25T03:34:08.933Z,0.60
2022-10-25T03:35:08.887Z,0.60
2022-10-25T03:36:08.941Z,0.50
2022-10-25T03:37:08.853Z,0.30
2022-10-25T03:38:08.862Z,0.70
2022-10-25T03:39:08.836Z,0.50
2022-10-25T03:40:08.825Z,0.50
2022-10-25T03:41:08.805Z,0.50
2022-10-25T03:42:08.835Z,0.60
2022-10-25T03:43:08.814Z,0.50
2022-10-25T03:44:08.831Z,0.70
2022-10-25T03:45:08.749Z,0.50
2022-10-25T03:46:08.760Z,0.40
2022-10-25T03:47:08.723Z,0.50
2022-10-25T03:48:08.736Z,0.50
2022-10-25T03:49:08.729Z,0.50
2022-10-25T03:50:08.707Z,0.40
2022-10-25T03:51:08.675Z,0.30
2022-10-25T03:52:08.658Z,0.50
2022-10-25T03:54:08.627Z,0.60
2022-10-25T03:55:08.612Z,0.60
2022-10-25T03:56:08.616Z,0.40
2022-10-25T03:57:08.623Z,0.50
2022-10-25T03:58:08.615Z,0.50
2022-10-25T03:59:08.567Z,0.50
2022-10-25T04:00:08.556Z,0.50
2022-10-25T04:01:08.704Z,0.50
2022-10-25T04:02:08.690Z,0.60
2022-10-25T04:03:08.532Z,0.60
2022-10-25T04:04:08.491Z,0.70
2022-10-25T04:05:08.477Z,0.40
2022-10-25T04:06:08.520Z,0.60
2022-10-25T04:07:08.492Z,0.50
2022-10-25T04:08:08.449Z,0.70
2022-10-25T04:09:08.436Z,0.40
2022-10-25T04:10:08.428Z,0.70
2022-10-25T04:11:08.403Z,0.60
2022-10-25T04:12:08.407Z,0.60
2022-10-25T04:13:08.376Z,0.50
2022-10-25T04:14:08.411Z,0.50
2022-10-25T04:15:08.406Z,0.50
2022-10-25T04:16:08.353Z,0.60
2022-10-25T04:17:08.363Z,0.40
2022-10-25T04:18:08.311Z,0.50
2022-10-25T04:19:08.312Z,0.50
2022-10-25T04:20:08.291Z,0.60
2022-10-25T04:21:08.288Z,0.60
2022-10-25T04:22:08.278Z,0.70
2022-10-25T04:23:08.240Z,0.50
2022-10-25T04:24:08.234Z,0.70
2022-10-25T04:25:08.211Z,0.60
2022-10-25T04:26:08.213Z,0.70
2022-10-25T04:27:08.201Z,0.40
2022-10-25T04:28:08.179Z,0.40
2022-10-25T04:29:08.165Z,1.00
2022-10-25T04:30:08.177Z,0.50
2022-10-25T04:31:08.145Z,0.60
2022-10-25T04:32:08.206Z,0.60
2022-10-25T04:33:08.118Z,0.60
2022-10-25T04:34:08.096Z,0.50
2022-10-25T04:35:08.110Z,0.40
2022-10-25T04:36:08.130Z,0.60
2022-10-25T04:37:08.070Z,0.70
2022-10-25T04:38:08.067Z,0.50
2022-10-25T04:39:08.125Z,0.70
2022-10-25T04:40:08.078Z,0.50
2022-10-25T04:41:08.010Z,0.70
2022-10-25T04:43:07.980Z,0.50
2022-10-25T04:44:07.987Z,0.50
2022-10-25T04:45:07.963Z,0.50
2022-10-25T04:46:07.937Z,0.50
2022-10-25T04:47:07.919Z,0.50
2022-10-25T04:48:07.923Z,0.40
2022-10-25T04:49:07.946Z,0.50
2022-10-25T04:50:07.963Z,0.50
2022-10-25T04:51:07.929Z,0.40
2022-10-25T04:52:07.872Z,0.70
2022-10-25T04:53:07.873Z,0.60
2022-10-25T04:54:07.823Z,0.50
2022-10-25T04:55:07.832Z,0.60
2022-10-25T04:56:07.802Z,0.50
2022-10-25T04:57:07.800Z,0.70
2022-10-25T04:58:07.903Z,0.80
2022-10-25T04:59:07.781Z,0.60
2022-10-25T05:00:07.752Z,0.50
2022-10-25T05:01:07.787Z,0.70
2022-10-25T05:02:07.731Z,0.50
2022-10-25T05:03:10.965Z,1.00
2022-10-25T05:04:07.769Z,0.70
2022-10-25T05:05:07.705Z,0.50
2022-10-25T05:06:08.578Z,1.20
2022-10-25T05:07:08.146Z,0.60
2022-10-25T05:08:07.939Z,1.10
2022-10-25T05:09:07.976Z,0.60
2022-10-25T05:10:07.951Z,0.90
2022-10-25T05:11:07.888Z,0.70
2022-10-25T05:12:07.642Z,1.10
2022-10-25T05:13:09.416Z,0.70
2022-10-25T05:14:07.797Z,0.80
2022-10-25T05:15:08.086Z,0.60
2022-10-25T05:16:07.564Z,0.80
2022-10-25T05:17:07.538Z,0.90
2022-10-25T05:18:07.540Z,0.80
2022-10-25T05:19:08.111Z,0.60
2022-10-25T05:20:08.681Z,0.70
2022-10-25T05:21:08.565Z,0.90
2022-10-25T05:22:07.562Z,0.60
2022-10-25T05:23:08.502Z,0.60
2022-10-25T05:24:07.581Z,0.70
2022-10-25T05:25:07.430Z,0.80
2022-10-25T05:26:07.422Z,0.60
2022-10-25T05:27:07.825Z,0.70
2022-10-25T05:28:07.422Z,0.60
2022-10-25T05:29:10.304Z,0.80
2022-10-25T05:30:09.393Z,0.80
2022-10-25T05:32:07.994Z,0.50
2022-10-25T05:33:07.714Z,0.60
2022-10-25T05:34:07.381Z,0.70
2022-10-25T05:35:07.289Z,0.60
2022-10-25T05:36:07.277Z,0.70
2022-10-25T05:37:07.390Z,0.80
2022-10-25T05:38:07.562Z,0.90
2022-10-25T05:39:07.258Z,0.50
2022-10-25T05:40:07.235Z,0.70
2022-10-25T05:41:07.233Z,0.50
2022-10-25T05:42:07.190Z,0.50
2022-10-25T05:43:07.266Z,0.70
2022-10-25T05:44:07.164Z,0.60
2022-10-25T05:45:07.186Z,0.50
2022-10-25T05:46:07.151Z,0.50
2022-10-25T05:47:07.117Z,0.80
2022-10-25T05:48:07.101Z,0.60
2022-10-25T05:49:07.081Z,0.50
2022-10-25T05:50:07.072Z,0.50
2022-10-25T05:51:20.941Z,0.70
2022-10-25T05:52:07.089Z,0.50
2022-10-25T05:53:07.022Z,0.50
2022-10-25T05:54:07.017Z,0.70
2022-10-25T05:55:07.005Z,0.80
2022-10-25T05:56:06.989Z,0.70
2022-10-25T05:57:06.976Z,0.70
2022-10-25T05:58:06.968Z,0.60
2022-10-25T05:59:06.942Z,0.60
2022-10-25T06:00:06.975Z,0.60
2022-10-25T06:01:07.066Z,0.50
2022-10-25T06:02:07.004Z,0.50
2022-10-25T06:03:06.919Z,0.70
2022-10-25T06:04:06.905Z,0.50
2022-10-25T06:05:06.872Z,0.60
2022-10-25T06:06:06.860Z,0.80
2022-10-25T06:07:06.857Z,0.70
2022-10-25T06:08:06.836Z,0.60
2022-10-25T06:09:06.805Z,0.70
2022-10-25T06:10:10.377Z,0.80
2022-10-25T06:11:06.783Z,0.50
2022-10-25T06:12:09.486Z,0.60
2022-10-25T06:13:06.772Z,0.80
2022-10-25T06:14:06.735Z,0.50
2022-10-25T06:15:06.725Z,0.50
2022-10-25T06:16:06.747Z,0.70
2022-10-25T06:17:06.716Z,0.60
2022-10-25T06:18:06.702Z,0.60
2022-10-25T06:19:06.729Z,0.60
2022-10-25T06:20:06.714Z,0.50
2022-10-25T06:21:06.668Z,0.90
2022-10-25T06:22:06.642Z,0.60
2022-10-25T06:23:09.154Z,0.80
2022-10-25T06:24:06.619Z,0.60
2022-10-25T06:25:06.809Z,0.50
2022-10-25T06:26:06.603Z,0.70
2022-10-25T06:27:06.581Z,0.60
2022-10-25T06:28:06.575Z,0.60
2022-10-25T06:29:06.579Z,0.90
2022-10-25T06:30:06.536Z,0.50
2022-10-25T06:31:06.519Z,0.60
2022-10-25T06:32:06.571Z,0.50
2022-10-25T06:33:06.506Z,0.60
2022-10-25T06:34:06.513Z,0.80
2022-10-25T06:35:06.481Z,0.60
2022-10-25T06:36:06.450Z,0.60
2022-10-25T06:37:06.468Z,0.70
2022-10-25T06:38:06.443Z,0.60
2022-10-25T06:39:07.102Z,0.60
2022-10-25T06:40:06.407Z,0.80
2022-10-25T06:41:06.385Z,1.00
2022-10-25T06:42:06.394Z,0.80
2022-10-25T06:43:06.357Z,1.40
2022-10-25T06:44:07.162Z,0.70
2022-10-25T06:45:06.325Z,0.80
2022-10-25T06:46:06.329Z,0.70
2022-10-25T06:47:17.493Z,1.00
2022-10-25T06:49:17.261Z,0.80
2022-10-25T06:50:18.239Z,0.60
2022-10-25T06:51:18.231Z,0.50
2022-10-25T06:52:18.223Z,0.50
2022-10-25T06:53:18.202Z,0.50
2022-10-25T06:54:18.221Z,0.70
2022-10-25T06:55:18.177Z,0.60
2022-10-25T06:56:18.211Z,0.80
2022-10-25T06:57:18.154Z,0.90
2022-10-25T06:58:18.156Z,0.80
2022-10-25T06:59:18.157Z,0.50
2022-10-25T07:00:18.108Z,0.60
2022-10-25T07:01:18.188Z,0.60
2022-10-25T07:02:18.244Z,0.60
2022-10-25T07:03:18.076Z,0.60
2022-10-25T07:04:18.069Z,1.00
2022-10-25T07:05:18.046Z,0.50
2022-10-25T07:06:18.062Z,0.70
2022-10-25T07:07:18.033Z,0.90
2022-10-25T07:08:18.005Z,0.60
2022-10-25T07:09:17.999Z,0.50
2022-10-25T07:10:17.985Z,0.60
2022-10-25T07:11:17.968Z,0.70
2022-10-25T07:12:17.968Z,0.60
2022-10-25T07:13:17.960Z,0.60
2022-10-25T07:14:17.928Z,0.80
2022-10-25T07:15:20.952Z,0.70
2022-10-25T07:16:17.900Z,0.50
2022-10-25T07:17:17.912Z,0.70
2022-10-25T07:18:17.870Z,0.60
2022-10-25T07:19:17.869Z,0.70
2022-10-25T07:20:17.854Z,0.40
2022-10-25T07:21:17.837Z,0.40
2022-10-25T07:22:17.828Z,0.60
2022-10-25T07:23:17.813Z,0.60
2022-10-25T07:24:17.813Z,0.70
2022-10-25T07:25:17.788Z,0.70
2022-10-25T07:26:17.792Z,1.00
2022-10-25T07:27:17.783Z,1.00
2022-10-25T07:28:17.756Z,1.30
2022-10-25T07:29:17.731Z,1.50
2022-10-25T07:30:17.720Z,1.60
2022-10-25T07:31:17.717Z,1.40
2022-10-25T07:32:17.703Z,1.60
2022-10-25T07:33:17.681Z,1.00
2022-10-25T07:34:17.680Z,1.90
2022-10-25T07:35:17.657Z,1.10
2022-10-25T07:36:17.644Z,1.10
2022-10-25T07:37:17.649Z,1.40
2022-10-25T07:38:17.613Z,1.30
2022-10-25T07:39:17.608Z,1.10
2022-10-25T07:40:17.586Z,1.20
2022-10-25T07:41:17.605Z,0.90
2022-10-25T07:42:17.601Z,0.60
2022-10-25T07:43:17.559Z,1.10
2022-10-25T07:44:21.370Z,1.20
2022-10-25T07:45:20.418Z,1.20
2022-10-25T07:46:17.545Z,1.00
2022-10-25T07:47:17.514Z,0.70
2022-10-25T07:48:17.494Z,0.60
2022-10-25T07:49:17.489Z,0.60
2022-10-25T07:50:17.452Z,0.50
2022-10-25T07:51:17.450Z,0.60
2022-10-25T07:52:17.439Z,0.80
2022-10-25T07:53:17.421Z,0.90
2022-10-25T07:54:17.430Z,1.10
2022-10-25T07:55:17.397Z,1.10
2022-10-25T07:56:20.565Z,0.70
2022-10-25T07:57:17.370Z,0.60
2022-10-25T07:58:17.358Z,0.80
2022-10-25T07:59:17.360Z,1.10
2022-10-25T08:00:17.310Z,0.90
2022-10-25T08:01:17.313Z,0.70
2022-10-25T08:02:17.282Z,0.60
2022-10-25T08:03:17.362Z,0.70
2022-10-25T08:04:17.360Z,0.70
2022-10-25T08:05:17.267Z,1.00
2022-10-25T08:06:17.243Z,1.10
2022-10-25T08:07:17.217Z,0.90
2022-10-25T08:08:17.204Z,0.70
2022-10-25T08:09:36.835Z,1.00
2022-10-25T08:10:17.187Z,1.10
2022-10-25T08:11:17.190Z,0.90
2022-10-25T08:12:21.681Z,0.70
2022-10-25T08:13:17.139Z,0.80
2022-10-25T08:14:17.172Z,0.70
2022-10-25T08:15:17.115Z,0.60
2022-10-25T08:16:17.114Z,0.50
2022-10-25T08:17:17.077Z,0.80
2022-10-25T08:18:17.087Z,0.50
2022-10-25T08:19:17.044Z,0.80
2022-10-25T08:20:17.043Z,0.60
2022-10-25T08:21:17.024Z,0.60
2022-10-25T08:22:17.011Z,0.60
2022-10-25T08:23:17.011Z,0.90
2022-10-25T08:24:17.105Z,0.40
2022-10-25T08:25:16.968Z,0.70
2022-10-25T08:26:16.953Z,0.50
2022-10-25T08:27:16.974Z,0.50
2022-10-25T08:28:16.938Z,0.70
2022-10-25T08:29:16.920Z,0.70
2022-10-25T08:30:16.900Z,0.50
2022-10-25T08:31:16.910Z,0.70
2022-10-25T08:32:16.867Z,1.20
2022-10-25T08:33:16.860Z,0.40
2022-10-25T08:34:16.857Z,0.80
2022-10-25T08:35:16.837Z,0.60
2022-10-25T08:36:16.821Z,0.70
2022-10-25T08:37:16.800Z,0.50
2022-10-25T08:38:16.785Z,0.70
2022-10-25T08:39:16.808Z,0.50
2022-10-25T08:40:16.776Z,0.70
2022-10-25T08:41:16.752Z,0.80
2022-10-25T08:42:16.757Z,0.90
2022-10-25T08:43:16.720Z,0.70
2022-10-25T08:44:16.725Z,0.60
2022-10-25T08:45:16.691Z,0.50
2022-10-25T08:46:16.703Z,0.50
2022-10-25T08:47:16.667Z,0.80
2022-10-25T08:48:16.652Z,0.60
2022-10-25T08:49:16.649Z,0.60
2022-10-25T08:50:16.630Z,0.60
2022-10-25T08:51:16.624Z,0.60
2022-10-25T08:52:17.418Z,0.50
2022-10-25T08:53:16.603Z,0.40
2022-10-25T08:54:16.581Z,0.60
2022-10-25T08:55:16.548Z,0.70
2022-10-25T08:56:17.403Z,0.40
2022-10-25T08:57:16.835Z,0.80
2022-10-25T08:58:16.513Z,0.40
2022-10-25T08:59:16.509Z,0.40
2022-10-25T09:00:16.488Z,0.70
2022-10-25T09:01:16.534Z,0.50
2022-10-25T09:02:16.542Z,0.80
2022-10-25T09:03:16.439Z,0.40
2022-10-25T09:04:16.432Z,0.70
2022-10-25T09:05:16.421Z,0.60
2022-10-25T09:06:16.425Z,0.70
2022-10-25T09:07:16.400Z,0.50
2022-10-25T09:08:16.382Z,0.70
2022-10-25T09:09:16.376Z,0.50
2022-10-25T09:10:16.354Z,0.50
2022-10-25T09:11:16.333Z,0.60
2022-10-25T09:12:16.324Z,0.70
2022-10-25T09:13:16.305Z,0.70
2022-10-25T09:14:16.298Z,0.40
2022-10-25T09:15:16.290Z,0.50
2022-10-25T09:16:16.277Z,0.90
2022-10-25T09:17:16.269Z,1.10
2022-10-25T09:18:16.283Z,0.70
2022-10-25T09:19:16.224Z,0.60
2022-10-25T09:20:16.219Z,0.50
2022-10-25T09:21:22.231Z,0.40
2022-10-25T09:22:16.194Z,0.60
2022-10-25T09:23:16.181Z,0.70
2022-10-25T09:24:16.157Z,0.50
2022-10-25T09:25:16.166Z,0.90
2022-10-25T09:26:16.138Z,0.60
2022-10-25T09:27:16.123Z,0.30
2022-10-25T09:28:16.106Z,0.70
2022-10-25T09:29:16.092Z,0.80
2022-10-25T09:30:16.109Z,0.70
2022-10-25T09:31:16.064Z,0.40
2022-10-25T09:32:16.053Z,0.60
2022-10-25T09:34:16.027Z,0.60
2022-10-25T09:35:16.019Z,0.60
2022-10-25T09:36:15.998Z,0.80
2022-10-25T09:37:15.982Z,0.60
2022-10-25T09:38:15.981Z,0.60
2022-10-25T09:39:16.213Z,0.60
2022-10-25T09:40:15.957Z,0.40
2022-10-25T09:41:15.938Z,0.60
2022-10-25T09:42:15.918Z,0.60
2022-10-25T09:43:15.902Z,0.60
2022-10-25T09:44:15.893Z,0.60
2022-10-25T09:45:15.885Z,1.00
2022-10-25T09:46:15.868Z,0.60
2022-10-25T09:47:15.850Z,0.70
2022-10-25T09:48:15.856Z,0.60
2022-10-25T09:49:15.838Z,0.60
2022-10-25T09:50:15.882Z,1.00
2022-10-25T09:51:15.798Z,1.00
2022-10-25T09:52:15.798Z,0.80
2022-10-25T09:53:18.810Z,0.60
2022-10-25T09:54:15.766Z,0.50
2022-10-25T09:55:15.755Z,1.30
2022-10-25T09:56:15.742Z,0.40
2022-10-25T09:57:16.462Z,0.70
2022-10-25T09:58:15.715Z,0.60
2022-10-25T09:59:15.694Z,0.60
2022-10-25T10:00:15.714Z,0.90
2022-10-25T10:01:15.871Z,0.50
2022-10-25T10:02:15.943Z,0.60
2022-10-25T10:03:15.637Z,0.40
2022-10-25T10:04:15.642Z,0.40
2022-10-25T10:05:15.616Z,0.80
2022-10-25T10:06:15.616Z,0.40
2022-10-25T10:07:15.590Z,0.60
2022-10-25T10:08:15.589Z,0.40
2022-10-25T10:09:15.603Z,0.80
2022-10-25T10:10:15.643Z,0.50
2022-10-25T10:11:15.538Z,0.50
2022-10-25T10:12:15.517Z,0.80
2022-10-25T10:13:15.520Z,0.60
2022-10-25T10:14:15.507Z,0.80
2022-10-25T10:15:15.578Z,0.40
2022-10-25T10:16:15.505Z,0.50
2022-10-25T10:17:15.448Z,0.40
2022-10-25T10:18:15.444Z,0.40
2022-10-25T10:19:15.436Z,0.60
2022-10-25T10:20:15.526Z,0.40
2022-10-25T10:21:15.403Z,0.50
2022-10-25T10:22:15.405Z,0.60
2022-10-25T10:23:15.381Z,0.60
2022-10-25T10:24:15.367Z,0.70
2022-10-25T10:25:15.348Z,0.80
2022-10-25T10:26:15.347Z,0.50
2022-10-25T10:27:15.331Z,0.50
2022-10-25T10:28:15.312Z,1.00
2022-10-25T10:29:17.507Z,0.40
2022-10-25T10:30:15.281Z,0.50
2022-10-25T10:31:15.277Z,0.50
2022-10-25T10:32:15.279Z,0.70
2022-10-25T10:33:15.244Z,0.50
2022-10-25T10:34:15.230Z,0.60
2022-10-25T10:35:15.215Z,0.70
2022-10-25T10:36:15.207Z,0.50
2022-10-25T10:37:15.199Z,0.50
2022-10-25T10:38:15.195Z,0.40
2022-10-25T10:39:15.164Z,0.40
2022-10-25T10:40:15.152Z,0.70
2022-10-25T10:41:15.135Z,0.30
2022-10-25T10:42:15.349Z,0.50
2022-10-25T10:43:15.116Z,0.50
2022-10-25T10:44:15.107Z,0.40
2022-10-25T10:45:15.084Z,0.30
2022-10-25T10:46:15.077Z,0.60
2022-10-25T10:47:15.054Z,0.40
2022-10-25T10:48:15.051Z,0.70
2022-10-25T10:49:15.022Z,0.40
2022-10-25T10:50:15.015Z,0.60
2022-10-25T10:51:38.833Z,0.50
2022-10-25T10:52:15.066Z,0.50
2022-10-25T10:53:14.977Z,0.50
2022-10-25T10:54:14.960Z,0.70
2022-10-25T10:55:14.965Z,0.60
2022-10-25T10:56:14.941Z,0.70
2022-10-25T10:57:16.118Z,0.80
2022-10-25T10:58:15.007Z,0.70
2022-10-25T10:59:14.898Z,0.70
2022-10-25T11:00:14.886Z,0.60
2022-10-25T11:01:14.915Z,0.50
2022-10-25T11:02:15.057Z,0.50
2022-10-25T11:03:14.859Z,0.50
2022-10-25T11:04:14.832Z,0.40
2022-10-25T11:05:14.820Z,0.30
2022-10-25T11:06:14.812Z,0.50
2022-10-25T11:07:14.799Z,0.60
2022-10-25T11:08:14.781Z,1.10
2022-10-25T11:09:14.797Z,0.90
2022-10-25T11:10:14.765Z,0.70
2022-10-25T11:11:14.738Z,0.40
2022-10-25T11:12:14.771Z,0.70
2022-10-25T11:13:14.718Z,0.60
2022-10-25T11:14:14.698Z,0.60
2022-10-25T11:15:14.692Z,0.70
2022-10-25T11:16:14.688Z,0.50
2022-10-25T11:17:14.657Z,0.60
2022-10-25T11:18:14.647Z,0.40
2022-10-25T11:19:14.632Z,0.70
2022-10-25T11:20:14.629Z,0.70
2022-10-25T11:21:14.613Z,0.40
2022-10-25T11:22:14.598Z,0.30
2022-10-25T11:23:14.592Z,0.30
2022-10-25T11:24:14.564Z,0.60
2022-10-25T11:25:14.550Z,0.50
2022-10-25T11:26:14.551Z,0.50
2022-10-25T11:27:14.533Z,0.60
2022-10-25T11:28:14.518Z,0.50
2022-10-25T11:29:14.499Z,0.70
2022-10-25T11:30:14.498Z,0.50
2022-10-25T11:31:14.486Z,0.40
2022-10-25T11:32:14.470Z,0.60
2022-10-25T11:33:14.470Z,0.50
2022-10-25T11:34:14.436Z,0.50
2022-10-25T11:35:14.432Z,0.50
2022-10-25T11:36:14.424Z,0.40
2022-10-25T11:37:14.395Z,0.60
2022-10-25T11:38:14.383Z,0.60
2022-10-25T11:39:14.366Z,0.40
2022-10-25T11:40:14.363Z,0.60
2022-10-25T11:41:14.347Z,0.50
2022-10-25T11:42:14.475Z,0.80
2022-10-25T11:43:14.328Z,0.70
2022-10-25T11:44:14.300Z,0.90
2022-10-25T11:45:14.294Z,0.80
2022-10-25T11:46:14.286Z,0.80
2022-10-25T11:47:14.272Z,0.80
2022-10-25T11:48:14.258Z,0.70
2022-10-25T11:49:14.253Z,0.70
2022-10-25T11:50:14.237Z,0.90
2022-10-25T11:51:14.210Z,0.70
2022-10-25T11:53:14.218Z,0.70
2022-10-25T11:54:14.171Z,0.50
2022-10-25T11:55:14.153Z,0.50
2022-10-25T11:56:14.146Z,0.50
2022-10-25T11:57:14.130Z,0.40
2022-10-25T11:58:14.139Z,0.60
2022-10-25T11:59:14.105Z,0.80
2022-10-25T12:00:14.131Z,0.60
2022-10-25T12:01:14.143Z,0.60
2022-10-25T12:02:14.102Z,0.50
2022-10-25T12:03:14.108Z,0.40
2022-10-25T12:04:14.043Z,1.30
2022-10-25T12:05:14.063Z,0.60
2022-10-25T12:06:14.009Z,0.80
2022-10-25T12:07:14.001Z,0.70
2022-10-25T12:08:13.999Z,0.60
2022-10-25T12:09:13.976Z,0.40
2022-10-25T12:10:13.962Z,0.60
2022-10-25T12:11:16.438Z,0.40
2022-10-25T12:12:13.941Z,0.40
2022-10-25T12:13:13.918Z,0.60
2022-10-25T12:14:13.916Z,0.40
2022-10-25T12:15:13.902Z,0.60
2022-10-25T12:16:13.877Z,0.50
2022-10-25T12:17:13.862Z,0.70
2022-10-25T12:18:13.856Z,0.60
2022-10-25T12:19:13.869Z,0.70
2022-10-25T12:20:13.853Z,0.90
2022-10-25T12:21:13.812Z,0.40
2022-10-25T12:22:13.805Z,0.50
2022-10-25T12:23:13.790Z,0.80
2022-10-25T12:24:13.787Z,0.80
2022-10-25T12:25:13.760Z,0.60
2022-10-25T12:26:13.744Z,0.70
2022-10-25T12:27:13.781Z,0.50
2022-10-25T12:28:13.735Z,0.40
2022-10-25T12:29:13.711Z,0.50
2022-10-25T12:30:13.790Z,0.50
2022-10-25T12:31:13.693Z,0.40
2022-10-25T12:32:13.665Z,0.40
2022-10-25T12:33:13.653Z,0.40
2022-10-25T12:34:13.638Z,0.60
2022-10-25T12:35:13.669Z,0.70
2022-10-25T12:36:13.612Z,0.50
2022-10-25T12:37:13.609Z,0.50
2022-10-25T12:38:13.591Z,0.80
2022-10-25T12:39:13.574Z,0.60
2022-10-25T12:40:13.628Z,0.40
2022-10-25T12:41:13.562Z,0.60
2022-10-25T12:42:13.541Z,0.60
2022-10-25T12:43:13.526Z,0.80
2022-10-25T12:44:13.502Z,0.90
2022-10-25T12:45:13.502Z,0.70
2022-10-25T12:46:13.485Z,0.60
2022-10-25T12:47:13.497Z,0.50
2022-10-25T12:48:19.485Z,0.60
2022-10-25T12:49:14.133Z,0.40
2022-10-25T12:50:13.508Z,0.50
2022-10-25T12:51:16.594Z,0.90
2022-10-25T12:52:13.406Z,0.40
2022-10-25T12:53:13.410Z,0.50
2022-10-25T12:54:13.375Z,0.50
2022-10-25T12:55:13.382Z,0.60
2022-10-25T12:56:13.362Z,0.60
2022-10-25T12:57:13.335Z,0.70
2022-10-25T12:58:13.325Z,0.80
2022-10-25T12:59:13.311Z,0.50
2022-10-25T13:00:13.368Z,0.60
2022-10-25T13:01:13.340Z,1.10
2022-10-25T13:02:13.290Z,0.60
2022-10-25T13:03:18.458Z,0.90
2022-10-25T13:04:13.246Z,0.80
2022-10-25T13:05:13.232Z,1.10
2022-10-25T13:06:13.221Z,0.90
2022-10-25T13:07:13.212Z,0.90
2022-10-25T13:08:13.197Z,0.40
2022-10-25T13:09:13.178Z,0.50
2022-10-25T13:10:13.206Z,0.60
2022-10-25T13:11:13.175Z,0.90
2022-10-25T13:12:13.145Z,1.20
2022-10-25T13:13:13.125Z,0.80
2022-10-25T13:14:13.119Z,0.80
2022-10-25T13:15:13.097Z,0.60
2022-10-25T13:16:13.083Z,0.50
2022-10-25T13:17:13.076Z,0.40
2022-10-25T13:18:13.054Z,0.50
2022-10-25T13:19:14.656Z,0.50
2022-10-25T13:20:13.091Z,0.50
2022-10-25T13:21:13.015Z,0.60
2022-10-25T13:22:13.009Z,0.60
2022-10-25T13:23:12.988Z,0.50
2022-10-25T13:24:12.971Z,0.60